createdAt,value
2019-03-29T00:02:37.147Z,76.31
2019-03-29T00:05:41.909Z,77.22
2019-03-29T00:08:46.784Z,77.62
2019-03-29T00:11:50.895Z,77.62
2019-03-29T00:14:55.936Z,76.62
2019-03-29T00:18:01.157Z,76.92
2019-03-29T00:21:06.779Z,76.92
2019-03-29T00:24:11.071Z,76.86
2019-03-29T00:27:16.051Z,77.37
2019-03-29T00:30:21.975Z,77.37
2019-03-29T00:33:27.298Z,77.18
2019-03-29T00:36:32.822Z,77.39
2019-03-29T00:39:38.313Z,78.45
2019-03-29T00:42:43.144Z,77.89
2019-03-29T00:45:48.372Z,77.18
2019-03-29T00:48:53.956Z,77.40
2019-03-29T00:51:58.827Z,77.12
2019-03-29T00:55:03.888Z,77.01
2019-03-29T00:58:09.334Z,77.11
2019-03-29T01:01:15.361Z,77.11
2019-03-29T01:04:20.318Z,77.21
2019-03-29T01:07:25.285Z,78.55
2019-03-29T01:10:30.374Z,77.89
2019-03-29T01:13:36.270Z,78.39
2019-03-29T01:16:41.263Z,78.26
2019-03-29T01:19:46.126Z,79.66
2019-03-29T01:22:51.005Z,78.77
2019-03-29T01:25:56.382Z,78.37
2019-03-29T01:29:02.675Z,78.32
2019-03-29T01:32:07.493Z,78.07
2019-03-29T01:35:13.302Z,77.98
2019-03-29T01:38:22.321Z,77.55
2019-03-29T01:41:26.259Z,77.33
2019-03-29T01:44:32.317Z,77.43
2019-03-29T01:47:37.072Z,77.54
2019-03-29T01:50:41.789Z,77.26
2019-03-29T01:53:47.236Z,77.28
2019-03-29T01:56:52.556Z,77.28
2019-03-29T01:59:59.727Z,77.26
2019-03-29T02:03:03.851Z,77.30
2019-03-29T02:06:09.616Z,77.19
2019-03-29T02:09:14.494Z,77.19
2019-03-29T02:12:19.596Z,77.15
2019-03-29T02:15:24.902Z,77.32
2019-03-29T02:18:30.306Z,77.31
2019-03-29T02:21:35.837Z,77.31
2019-03-29T02:24:40.526Z,77.26
2019-03-29T02:27:45.602Z,77.26
2019-03-29T02:30:50.413Z,79.23
2019-03-29T02:33:55.284Z,80.23
2019-03-29T02:37:01.918Z,80.10
2019-03-29T02:40:08.042Z,78.35
2019-03-29T02:43:12.914Z,78.21
2019-03-29T02:46:17.887Z,77.60
2019-03-29T02:49:22.716Z,77.60
2019-03-29T02:52:27.612Z,77.91
2019-03-29T02:55:32.335Z,77.91
2019-03-29T02:58:37.258Z,77.51
2019-03-29T03:01:41.864Z,77.40
2019-03-29T03:04:46.688Z,78.74
2019-03-29T03:07:51.323Z,78.74
2019-03-29T03:10:56.268Z,78.21
2019-03-29T03:14:01.278Z,77.68
2019-03-29T03:17:05.930Z,77.77
2019-03-29T03:20:16.295Z,77.50
2019-03-29T03:23:21.377Z,77.50
2019-03-29T03:26:26.748Z,77.42
2019-03-29T03:29:31.038Z,77.28
2019-03-29T03:32:35.880Z,78.63
2019-03-29T03:35:40.804Z,77.67
2019-03-29T03:38:45.573Z,77.67
2019-03-29T03:41:50.307Z,78.67
2019-03-29T03:44:55.408Z,79.31
2019-03-29T03:48:00.187Z,78.53
2019-03-29T03:51:05.417Z,80.29
2019-03-29T03:54:10.287Z,79.55
2019-03-29T03:57:15.092Z,78.77
2019-03-29T04:00:23.339Z,80.42
2019-03-29T04:03:28.341Z,79.49
2019-03-29T04:06:33.794Z,78.68
2019-03-29T04:09:49.522Z,78.33
2019-03-29T04:12:46.368Z,79.60
2019-03-29T04:15:51.287Z,78.72
2019-03-29T04:18:56.530Z,80.70
2019-03-29T04:22:01.972Z,79.10
2019-03-29T04:25:07.841Z,79.10
2019-03-29T04:28:13.650Z,79.80
2019-03-29T04:31:18.473Z,79.80
2019-03-29T04:34:23.298Z,79.30
2019-03-29T04:37:27.923Z,80.01
2019-03-29T04:40:32.765Z,79.64
2019-03-29T04:43:36.992Z,79.64
2019-03-29T04:46:41.989Z,79.39
2019-03-29T04:49:47.279Z,80.57
2019-03-29T04:52:52.285Z,79.84
2019-03-29T04:55:57.101Z,79.47
2019-03-29T04:59:02.277Z,79.31
2019-03-29T05:02:07.220Z,79.92
2019-03-29T05:05:12.457Z,79.93
2019-03-29T05:08:17.307Z,80.19
2019-03-29T05:11:22.297Z,80.17
2019-03-29T05:14:27.279Z,81.01
2019-03-29T05:17:31.782Z,79.88
2019-03-29T05:20:36.584Z,80.03
2019-03-29T05:23:41.524Z,80.34
2019-03-29T05:26:46.344Z,81.00
2019-03-29T05:29:51.334Z,80.84
2019-03-29T05:32:56.308Z,81.29
2019-03-29T05:36:01.204Z,81.13
2019-03-29T05:39:08.144Z,80.74
2019-03-29T05:42:12.852Z,80.53
2019-03-29T05:45:17.939Z,80.78
2019-03-29T05:48:22.606Z,80.78
2019-03-29T05:51:27.492Z,80.89
2019-03-29T05:54:34.344Z,81.12
2019-03-29T05:57:39.284Z,81.81
2019-03-29T06:00:44.278Z,80.90
2019-03-29T06:03:48.943Z,80.72
2019-03-29T06:06:53.579Z,80.31
2019-03-29T06:09:58.384Z,80.42
2019-03-29T06:13:03.289Z,80.16
2019-03-29T06:16:08.072Z,79.21
2019-03-29T06:19:13.280Z,78.85
2019-03-29T06:22:18.284Z,78.09
2019-03-29T06:25:23.227Z,77.96
2019-03-29T06:28:29.991Z,77.27
2019-03-29T06:31:35.446Z,76.63
2019-03-29T06:34:40.722Z,75.51
2019-03-29T06:37:44.621Z,75.14
2019-03-29T06:41:02.047Z,73.86
2019-03-29T06:43:56.297Z,72.87
2019-03-29T06:47:01.513Z,74.17
2019-03-29T06:50:10.511Z,76.97
2019-03-29T06:53:15.312Z,75.94
2019-03-29T06:56:20.407Z,75.72
2019-03-29T06:59:25.591Z,76.23
2019-03-29T07:02:30.533Z,76.40
2019-03-29T07:05:35.289Z,74.22
2019-03-29T07:08:40.368Z,73.81
2019-03-29T07:11:45.502Z,73.55
2019-03-29T07:14:50.283Z,75.01
2019-03-29T07:17:56.762Z,74.13
2019-03-29T07:21:02.235Z,75.44
2019-03-29T07:24:07.256Z,74.25
2019-03-29T07:27:12.115Z,72.56
2019-03-29T07:30:17.352Z,72.18
2019-03-29T07:33:22.354Z,73.96
2019-03-29T07:36:27.707Z,73.57
2019-03-29T07:39:32.552Z,73.99
2019-03-29T07:42:37.268Z,72.92
2019-03-29T07:45:44.229Z,73.43
2019-03-29T07:48:49.430Z,72.79
2019-03-29T07:51:54.270Z,72.45
2019-03-29T07:54:59.243Z,72.66
2019-03-29T07:58:04.297Z,72.39
2019-03-29T08:01:09.753Z,72.02
2019-03-29T08:04:13.630Z,70.77
2019-03-29T08:07:27.035Z,69.88
2019-03-29T08:10:30.253Z,70.31
2019-03-29T08:13:32.295Z,68.76
2019-03-29T08:16:37.702Z,68.18
2019-03-29T08:19:42.315Z,66.98
2019-03-29T08:22:47.818Z,66.32
2019-03-29T08:25:54.973Z,68.38
2019-03-29T08:29:00.250Z,68.38
2019-03-29T08:32:05.388Z,67.74
2019-03-29T08:35:10.695Z,66.67
2019-03-29T08:38:14.986Z,65.88
2019-03-29T08:41:20.995Z,64.12
2019-03-29T08:44:26.019Z,60.04
2019-03-29T08:47:31.357Z,59.28
2019-03-29T08:50:36.257Z,58.26
2019-03-29T08:53:41.029Z,58.29
2019-03-29T08:56:46.313Z,56.42
2019-03-29T08:59:52.335Z,57.29
2019-03-29T09:02:57.250Z,55.19
2019-03-29T09:06:02.326Z,56.60
2019-03-29T09:09:11.791Z,52.86
2019-03-29T09:12:15.337Z,52.85
2019-03-29T09:15:20.446Z,50.64
2019-03-29T09:18:26.129Z,48.36
2019-03-29T09:21:31.367Z,51.82
2019-03-29T09:24:36.146Z,51.35
2019-03-29T09:27:41.330Z,50.68
2019-03-29T09:30:46.415Z,48.36
2019-03-29T09:33:52.429Z,49.94
2019-03-29T09:36:59.926Z,50.43
2019-03-29T09:40:04.669Z,49.16
2019-03-29T09:43:10.317Z,50.69
2019-03-29T09:46:15.491Z,52.69
2019-03-29T09:49:21.352Z,51.79
2019-03-29T09:52:26.118Z,52.37
2019-03-29T09:55:31.387Z,51.54
2019-03-29T09:58:36.284Z,49.45
2019-03-29T10:01:41.124Z,50.02
2019-03-29T10:04:46.070Z,50.23
2019-03-29T10:07:51.728Z,48.83
2019-03-29T10:10:56.492Z,47.53
2019-03-29T10:14:01.479Z,47.52
2019-03-29T10:17:07.050Z,46.62
2019-03-29T10:20:12.419Z,49.22
2019-03-29T10:23:17.272Z,46.54
2019-03-29T10:26:22.365Z,45.87
2019-03-29T10:29:30.437Z,46.98
2019-03-29T10:32:35.286Z,44.31
2019-03-29T10:35:51.414Z,47.51
2019-03-29T10:38:47.337Z,49.37
2019-03-29T10:41:52.391Z,48.85
2019-03-29T10:44:57.611Z,50.25
2019-03-29T10:48:02.807Z,49.42
2019-03-29T10:51:08.489Z,49.06
2019-03-29T10:54:13.977Z,48.05
2019-03-29T10:57:19.373Z,48.05
2019-03-29T11:00:39.126Z,46.35
2019-03-29T11:03:44.598Z,47.27
2019-03-29T11:06:50.034Z,46.82
2019-03-29T11:09:54.801Z,48.48
2019-03-29T11:13:11.782Z,44.81
2019-03-29T11:16:06.988Z,40.71
2019-03-29T11:19:11.897Z,40.71
2019-03-29T11:22:17.251Z,40.92
2019-03-29T11:25:22.318Z,41.29
2019-03-29T11:28:27.318Z,42.64
2019-03-29T11:31:33.332Z,44.45
2019-03-29T11:34:38.794Z,46.04
2019-03-29T11:37:43.471Z,43.95
2019-03-29T11:40:48.667Z,45.72
2019-03-29T11:43:56.515Z,46.34
2019-03-29T11:47:02.105Z,48.55
2019-03-29T11:50:08.308Z,48.25
2019-03-29T11:53:13.323Z,48.62
2019-03-29T11:56:18.295Z,45.87
2019-03-29T11:59:24.003Z,44.69
2019-03-29T12:02:31.539Z,44.16
2019-03-29T12:05:36.552Z,43.78
2019-03-29T12:08:43.304Z,44.32
2019-03-29T12:11:49.647Z,42.58
2019-03-29T12:14:54.324Z,45.73
2019-03-29T12:17:59.929Z,44.19
2019-03-29T12:21:04.905Z,42.74
2019-03-29T12:24:09.895Z,41.84
2019-03-29T12:27:15.345Z,41.20
2019-03-29T12:30:31.488Z,41.20
2019-03-29T12:33:28.317Z,42.15
2019-03-29T12:36:33.473Z,38.29
2019-03-29T12:39:38.760Z,37.24
2019-03-29T12:42:44.263Z,36.74
2019-03-29T12:45:50.561Z,37.70
2019-03-29T12:48:56.050Z,39.69
2019-03-29T12:52:01.746Z,38.31
2019-03-29T12:55:11.416Z,40.88
2019-03-29T12:58:16.337Z,40.68
2019-03-29T13:01:22.354Z,41.20
2019-03-29T13:04:27.621Z,43.45
2019-03-29T13:07:32.567Z,43.02
2019-03-29T13:10:37.294Z,41.44
2019-03-29T13:13:42.429Z,40.07
2019-03-29T13:16:47.454Z,40.13
2019-03-29T13:19:52.658Z,40.53
2019-03-29T13:22:57.211Z,40.14
2019-03-29T13:26:02.338Z,37.69
2019-03-29T13:29:07.841Z,39.98
2019-03-29T13:32:13.695Z,40.38
2019-03-29T13:35:19.512Z,40.38
2019-03-29T13:38:24.306Z,42.08
2019-03-29T13:41:31.632Z,39.33
2019-03-29T13:44:37.281Z,38.49
2019-03-29T13:47:42.772Z,36.30
2019-03-29T13:50:47.789Z,37.61
2019-03-29T13:53:52.935Z,37.23
2019-03-29T13:56:58.851Z,36.61
2019-03-29T14:00:06.103Z,36.38
2019-03-29T14:03:11.353Z,37.45
2019-03-29T14:06:17.012Z,39.06
2019-03-29T14:09:22.933Z,38.80
2019-03-29T14:12:28.639Z,39.61
2019-03-29T14:15:33.344Z,39.61
2019-03-29T14:18:38.366Z,37.64
2019-03-29T14:21:44.303Z,37.68
2019-03-29T14:24:49.363Z,38.00
2019-03-29T14:27:54.505Z,39.47
2019-03-29T14:30:59.393Z,37.97
2019-03-29T14:34:05.329Z,38.42
2019-03-29T14:37:10.756Z,40.59
2019-03-29T14:40:16.535Z,42.93
2019-03-29T14:43:22.962Z,40.79
2019-03-29T14:46:30.103Z,40.19
2019-03-29T14:49:35.476Z,39.99
2019-03-29T14:52:40.534Z,40.57
2019-03-29T14:55:45.691Z,42.27
2019-03-29T14:58:53.351Z,42.82
2019-03-29T15:02:02.475Z,42.97
2019-03-29T15:05:10.355Z,42.91
2019-03-29T15:08:19.599Z,43.05
2019-03-29T15:11:25.356Z,42.45
2019-03-29T15:14:34.370Z,42.45
2019-03-29T15:17:43.482Z,41.41
2019-03-29T15:20:53.823Z,40.84
2019-03-29T15:23:56.129Z,41.85
2019-03-29T15:27:03.323Z,40.63
2019-03-29T15:30:10.438Z,42.29
2019-03-29T15:33:15.533Z,41.94
2019-03-29T15:36:24.712Z,40.90
2019-03-29T15:39:29.280Z,40.06
2019-03-29T15:42:35.269Z,40.76
2019-03-29T15:45:44.728Z,40.31
2019-03-29T15:48:49.288Z,41.27
2019-03-29T15:51:54.840Z,40.19
2019-03-29T15:55:02.492Z,40.30
2019-03-29T15:58:09.027Z,40.30
2019-03-29T16:01:14.432Z,40.92
2019-03-29T16:04:23.167Z,41.13
2019-03-29T16:07:33.546Z,40.71
2019-03-29T16:10:40.955Z,41.14
2019-03-29T16:13:44.852Z,39.27
2019-03-29T16:16:49.747Z,41.46
2019-03-29T16:19:56.585Z,41.46
2019-03-29T16:23:03.282Z,40.76
2019-03-29T16:26:08.603Z,40.59
2019-03-29T16:29:14.227Z,40.97
2019-03-29T16:32:19.432Z,42.46
2019-03-29T16:35:25.564Z,42.36
2019-03-29T16:38:30.316Z,43.05
2019-03-29T16:41:35.775Z,47.03
2019-03-29T16:44:41.571Z,46.47
2019-03-29T16:47:46.508Z,47.23
2019-03-29T16:50:51.829Z,46.87
2019-03-29T16:53:58.751Z,50.77
2019-03-29T16:57:02.859Z,51.04
2019-03-29T17:00:14.507Z,53.85
2019-03-29T17:03:20.084Z,54.56
2019-03-29T17:06:25.264Z,53.18
2019-03-29T17:09:30.348Z,52.00
2019-03-29T17:12:35.546Z,53.28
2019-03-29T17:15:40.693Z,58.67
2019-03-29T17:18:45.318Z,58.54
2019-03-29T17:21:51.278Z,56.09
2019-03-29T17:24:57.478Z,56.81
2019-03-29T17:28:02.523Z,58.96
2019-03-29T17:31:09.954Z,58.95
2019-03-29T17:34:15.510Z,58.87
2019-03-29T17:37:23.376Z,60.51
2019-03-29T17:40:28.668Z,62.94
2019-03-29T17:43:33.715Z,62.06
2019-03-29T17:46:38.252Z,62.60
2019-03-29T17:49:43.760Z,64.82
2019-03-29T17:52:48.685Z,66.26
2019-03-29T17:55:53.431Z,66.87
2019-03-29T17:58:58.278Z,67.07
2019-03-29T18:02:09.150Z,66.64
2019-03-29T18:05:10.309Z,67.38
2019-03-29T18:08:15.318Z,68.45
2019-03-29T18:11:20.983Z,68.66
2019-03-29T18:14:28.378Z,70.91
2019-03-29T18:17:34.692Z,71.58
2019-03-29T18:20:39.391Z,72.37
2019-03-29T18:23:44.364Z,71.50
2019-03-29T18:26:49.278Z,72.25
2019-03-29T18:29:54.309Z,71.78
2019-03-29T18:32:59.342Z,75.08
2019-03-29T18:36:06.788Z,74.47
2019-03-29T18:39:11.954Z,74.96
2019-03-29T18:42:19.402Z,75.52
2019-03-29T18:45:24.304Z,75.52
2019-03-29T18:48:29.416Z,75.24
2019-03-29T18:51:35.945Z,76.21
2019-03-29T18:54:40.909Z,76.59
2019-03-29T18:57:46.045Z,76.55
2019-03-29T19:00:52.046Z,76.25
2019-03-29T19:03:57.550Z,77.83
2019-03-29T19:07:02.656Z,76.87
2019-03-29T19:10:08.943Z,76.45
2019-03-29T19:13:17.272Z,77.58
2019-03-29T19:16:22.566Z,77.17
2019-03-29T19:19:29.423Z,78.35
2019-03-29T19:22:34.867Z,78.88
2019-03-29T19:25:41.360Z,76.99
2019-03-29T19:28:48.615Z,76.99
2019-03-29T19:31:56.231Z,78.66
2019-03-29T19:35:01.714Z,80.21
2019-03-29T19:38:06.092Z,78.94
2019-03-29T19:41:11.418Z,78.80
2019-03-29T19:44:17.323Z,79.05
2019-03-29T19:47:25.367Z,79.01
2019-03-29T19:50:30.296Z,81.77
2019-03-29T19:53:36.441Z,81.14
2019-03-29T19:56:43.755Z,80.07
2019-03-29T19:59:49.292Z,79.69
2019-03-29T20:02:54.300Z,81.08
2019-03-29T20:06:03.545Z,83.12
2019-03-29T20:09:10.560Z,82.33
2019-03-29T20:12:16.379Z,82.33
2019-03-29T20:15:21.448Z,81.87
2019-03-29T20:18:28.067Z,83.60
2019-03-29T20:21:38.952Z,84.43
2019-03-29T20:24:45.697Z,82.38
2019-03-29T20:27:50.866Z,82.38
2019-03-29T20:30:56.307Z,82.93
2019-03-29T20:34:01.719Z,82.93
2019-03-29T20:37:08.859Z,82.65
2019-03-29T20:40:13.367Z,82.78
2019-03-29T20:43:18.503Z,82.78
2019-03-29T20:46:23.615Z,83.42
2019-03-29T20:49:28.763Z,83.36
2019-03-29T20:52:35.204Z,84.81
2019-03-29T20:55:40.067Z,83.94
2019-03-29T20:58:45.255Z,83.38
2019-03-29T21:01:52.737Z,83.52
2019-03-29T21:04:56.806Z,84.41
2019-03-29T21:08:01.611Z,86.15
2019-03-29T21:11:06.421Z,85.38
2019-03-29T21:14:11.924Z,85.01
2019-03-29T21:17:18.815Z,85.00
2019-03-29T21:20:24.693Z,85.55
2019-03-29T21:23:29.600Z,85.55
2019-03-29T21:26:36.989Z,86.51
2019-03-29T21:29:44.043Z,86.97
2019-03-29T21:32:49.343Z,86.33
2019-03-29T21:35:54.273Z,86.91
2019-03-29T21:38:59.486Z,88.04
2019-03-29T21:42:06.531Z,87.27
2019-03-29T21:45:11.509Z,87.59
2019-03-29T21:48:28.646Z,87.58
2019-03-29T21:51:26.370Z,88.22
2019-03-29T21:54:31.468Z,86.91
2019-03-29T21:57:36.670Z,86.98
2019-03-29T22:00:41.654Z,87.09
2019-03-29T22:03:46.546Z,86.35
2019-03-29T22:06:51.763Z,86.25
2019-03-29T22:09:58.076Z,86.34
2019-03-29T22:13:07.348Z,86.54
2019-03-29T22:16:14.434Z,85.96
2019-03-29T22:19:24.298Z,85.46
2019-03-29T22:22:30.369Z,86.98
2019-03-29T22:25:35.712Z,87.27
2019-03-29T22:28:40.074Z,86.77
2019-03-29T22:31:45.939Z,87.09
2019-03-29T22:34:51.282Z,86.55
2019-03-29T22:37:56.591Z,86.55
2019-03-29T22:41:03.443Z,86.79
2019-03-29T22:44:09.338Z,86.16
2019-03-29T22:47:14.284Z,86.91
2019-03-29T22:50:19.657Z,86.87
2019-03-29T22:53:24.963Z,86.46
2019-03-29T22:56:29.644Z,86.06
2019-03-29T22:59:35.335Z,86.04
2019-03-29T23:02:40.692Z,86.27
2019-03-29T23:05:44.860Z,87.98
2019-03-29T23:08:50.329Z,86.15
2019-03-29T23:11:55.548Z,86.15
2019-03-29T23:15:00.603Z,85.59
2019-03-29T23:18:05.814Z,85.27
2019-03-29T23:21:11.415Z,86.62
2019-03-29T23:24:17.240Z,87.62
2019-03-29T23:27:22.870Z,86.48
2019-03-29T23:30:27.644Z,85.86
2019-03-29T23:33:32.938Z,85.86
2019-03-29T23:36:38.753Z,86.72
2019-03-29T23:39:43.123Z,88.83
2019-03-29T23:42:47.919Z,87.25
2019-03-29T23:45:53.328Z,87.01
2019-03-29T23:48:58.612Z,87.68
2019-03-29T23:52:03.710Z,86.69
2019-03-29T23:55:08.859Z,87.29
2019-03-29T23:58:13.698Z,87.32
